Time;durP1;ratioP1;P1;durP2;ratioP2;P2;SDS_P1;SDS_P2;PMS_P1;PMS_P2;Temp;Humidity;BMP_temperature;BMP_pressure;BME280_temperature;BME280_humidity;BME280_pressure;Samples;Min_cycle;Max_cycle;Signal;HPM_P1;HPM_P2
2022/11/14 00:02:17;;;;;;;10.82;6.25;;;6.90;99.90;;;;;;5093383;28;20625;-50
2022/11/14 00:04:46;;;;;;;8.70;4.97;;;6.90;99.90;;;;;;5093039;28;20664;-52
2022/11/14 00:07:12;;;;;;;7.93;6.07;;;6.90;99.90;;;;;;5093113;28;20157;-51
2022/11/14 00:09:39;;;;;;;11.18;6.35;;;6.90;99.90;;;;;;5092939;28;20535;-51
2022/11/14 00:12:05;;;;;;;10.95;5.70;;;6.90;99.90;;;;;;5093414;28;20201;-50
2022/11/14 00:14:31;;;;;;;11.63;6.25;;;6.90;99.90;;;;;;5093391;28;20251;-53
2022/11/14 00:16:56;;;;;;;7.13;4.97;;;6.90;99.90;;;;;;5093665;28;20643;-51
2022/11/14 00:19:22;;;;;;;9.45;5.43;;;6.90;99.90;;;;;;5093513;28;20265;-51
2022/11/14 00:21:47;;;;;;;10.95;5.80;;;6.90;99.90;;;;;;5093228;28;20162;-52
2022/11/14 00:24:13;;;;;;;10.82;5.90;;;6.90;99.90;;;;;;5093254;28;20291;-52
2022/11/14 00:26:38;;;;;;;10.15;5.70;;;6.90;99.90;;;;;;5093170;28;20699;-52
2022/11/14 00:29:04;;;;;;;10.90;6.13;;;6.90;99.90;;;;;;5093106;28;20636;-51
2022/11/14 00:31:30;;;;;;;10.50;6.25;;;6.90;99.90;;;;;;5093282;28;20497;-51
2022/11/14 00:33:55;;;;;;;12.02;5.75;;;6.80;99.90;;;;;;5093425;28;20519;-51
2022/11/14 00:36:21;;;;;;;10.52;6.43;;;6.80;99.90;;;;;;5092951;28;20165;-53
2022/11/14 00:38:46;;;;;;;14.30;6.85;;;6.80;99.90;;;;;;5092999;28;20176;-52
2022/11/14 00:41:12;;;;;;;14.45;6.30;;;6.80;99.90;;;;;;5092923;28;20625;-51
2022/11/14 00:43:37;;;;;;;24.67;8.65;;;6.80;99.90;;;;;;5092792;28;20208;-51
2022/11/14 00:46:03;;;;;;;21.30;8.35;;;6.80;99.90;;;;;;5092812;28;20655;-53
2022/11/14 00:48:28;;;;;;;11.95;6.50;;;6.80;99.90;;;;;;5092834;28;20165;-51
2022/11/14 00:50:54;;;;;;;15.45;8.32;;;6.80;99.90;;;;;;5093146;28;20172;-53
2022/11/14 00:53:19;;;;;;;17.90;8.43;;;6.80;99.90;;;;;;5092918;28;20161;-52
2022/11/14 00:55:45;;;;;;;12.00;7.53;;;6.70;99.90;;;;;;5092615;28;20165;-52
2022/11/14 00:58:11;;;;;;;11.57;7.53;;;6.70;99.90;;;;;;5092603;28;20173;-51
2022/11/14 01:00:37;;;;;;;11.48;7.63;;;6.70;99.90;;;;;;5092340;28;20680;-50
2022/11/14 01:03:03;;;;;;;12.35;7.32;;;6.70;99.90;;;;;;5092257;28;20618;-52
2022/11/14 01:05:28;;;;;;;17.40;6.93;;;6.70;99.90;;;;;;5092535;28;20200;-49
2022/11/14 01:07:54;;;;;;;10.65;6.70;;;6.70;99.90;;;;;;5092603;28;20628;-51
2022/11/14 01:10:20;;;;;;;10.25;6.18;;;6.70;99.90;;;;;;5092363;28;20200;-53
2022/11/14 01:12:46;;;;;;;9.95;6.45;;;6.60;99.90;;;;;;5092330;28;20168;-52
2022/11/14 01:15:11;;;;;;;10.23;6.53;;;6.60;99.90;;;;;;5092304;28;20169;-52
2022/11/14 01:17:37;;;;;;;10.30;6.57;;;6.60;99.90;;;;;;5092299;28;20165;-52
2022/11/14 01:20:03;;;;;;;8.65;6.07;;;6.50;99.90;;;;;;5092171;28;20172;-53
2022/11/14 01:22:29;;;;;;;10.85;6.70;;;6.50;99.90;;;;;;5092313;28;20169;-51
2022/11/14 01:24:57;;;;;;;8.98;6.35;;;6.50;99.90;;;;;;5092742;28;20169;-52
2022/11/14 01:27:23;;;;;;;12.07;7.10;;;6.50;99.90;;;;;;5092408;28;20632;-51
2022/11/14 01:29:49;;;;;;;8.30;5.97;;;6.40;99.90;;;;;;5092121;28;20161;-53
2022/11/14 01:32:14;;;;;;;8.88;5.63;;;6.40;99.90;;;;;;5092062;28;20169;-52
2022/11/14 01:34:40;;;;;;;10.80;6.72;;;6.40;99.90;;;;;;5092046;28;20179;-50
2022/11/14 01:37:06;;;;;;;10.00;6.53;;;6.40;99.90;;;;;;5092093;28;20197;-53
2022/11/14 01:39:31;;;;;;;9.45;5.85;;;6.40;99.90;;;;;;5091992;28;20214;-53
2022/11/14 01:41:57;;;;;;;9.35;6.60;;;6.40;99.90;;;;;;5092327;28;20557;-53
2022/11/14 01:44:44;;;;;;;9.80;6.40;;;6.30;99.90;;;;;;5092111;28;20209;-52
2022/11/14 01:47:11;;;;;;;10.13;6.03;;;6.30;99.90;;;;;;5092173;28;20176;-51
2022/11/14 01:49:44;;;;;;;7.68;5.90;;;6.30;99.90;;;;;;5092118;28;20204;-51
2022/11/14 01:52:13;;;;;;;8.55;6.05;;;6.30;99.90;;;;;;5091848;28;20164;-51
2022/11/14 01:54:44;;;;;;;10.65;6.60;;;6.30;99.90;;;;;;5091837;28;20215;-52
2022/11/14 01:57:12;;;;;;;10.07;5.63;;;6.30;99.90;;;;;;5091760;28;20260;-51
2022/11/14 01:59:42;;;;;;;10.00;5.97;;;6.30;99.90;;;;;;5091597;28;20295;-53
2022/11/14 02:02:14;;;;;;;7.82;5.32;;;6.30;99.90;;;;;;5091737;28;20165;-52
2022/11/14 02:04:47;;;;;;;7.93;5.55;;;6.30;99.90;;;;;;5091808;28;20233;-54
2022/11/14 02:07:14;;;;;;;6.57;5.13;;;6.30;99.90;;;;;;5091743;28;20215;-51
2022/11/14 02:09:44;;;;;;;9.13;6.28;;;6.30;99.90;;;;;;5091725;28;20197;-52
2022/11/14 02:12:13;;;;;;;7.75;5.30;;;6.30;99.90;;;;;;5091669;28;20168;-51
2022/11/14 02:14:39;;;;;;;8.25;5.78;;;6.30;99.90;;;;;;5091676;28;20162;-50
2022/11/14 02:17:04;;;;;;;8.18;5.72;;;6.30;99.90;;;;;;5091880;28;20196;-50
2022/11/14 02:19:44;;;;;;;6.45;5.28;;;6.30;99.90;;;;;;5092304;28;20165;-51
2022/11/14 02:22:09;;;;;;;9.10;5.40;;;6.30;99.90;;;;;;5095572;28;20162;-50
2022/11/14 02:24:35;;;;;;;8.18;4.88;;;6.30;99.90;;;;;;5095488;28;20204;-50
2022/11/14 02:27:03;;;;;;;5.95;4.60;;;6.30;99.90;;;;;;5095542;28;20190;-52
2022/11/14 02:29:31;;;;;;;10.52;4.80;;;6.20;99.90;;;;;;5095458;28;20629;-52
2022/11/14 02:31:57;;;;;;;9.35;5.03;;;6.20;99.90;;;;;;5095457;28;20275;-50
2022/11/14 02:34:23;;;;;;;6.90;4.45;;;6.20;99.90;;;;;;5095751;28;20231;-51
2022/11/14 02:36:48;;;;;;;6.30;4.72;;;6.20;99.90;;;;;;5095354;28;20169;-52
2022/11/14 02:39:14;;;;;;;6.47;4.20;;;6.20;99.90;;;;;;5095259;28;20182;-52
2022/11/14 02:41:40;;;;;;;8.02;4.88;;;6.20;99.90;;;;;;5095220;28;20189;-53
2022/11/14 02:44:05;;;;;;;8.18;4.53;;;6.20;99.90;;;;;;5095048;28;20684;-50
2022/11/14 02:46:31;;;;;;;5.65;4.32;;;6.20;99.90;;;;;;5095369;28;20188;-51
2022/11/14 02:48:56;;;;;;;6.32;4.55;;;6.10;99.90;;;;;;5077266;28;20187;-50
2022/11/14 02:51:22;;;;;;;5.28;3.75;;;6.20;99.90;;;;;;5095595;28;20169;-51
2022/11/14 02:53:48;;;;;;;7.28;4.40;;;6.20;99.90;;;;;;5094901;28;20220;-52
2022/11/14 02:56:13;;;;;;;6.15;4.32;;;6.10;99.90;;;;;;5094976;28;20686;-52
2022/11/14 02:58:39;;;;;;;6.38;4.10;;;6.10;99.90;;;;;;5094998;28;20173;-50
2022/11/14 03:01:04;;;;;;;5.88;4.00;;;6.10;99.90;;;;;;5094873;28;20256;-51
2022/11/14 03:03:30;;;;;;;5.70;4.15;;;6.10;99.90;;;;;;5095335;28;20209;-50
2022/11/14 03:06:02;;;;;;;5.93;3.97;;;6.10;99.90;;;;;;5095102;28;20177;-53
2022/11/14 03:08:28;;;;;;;8.55;4.30;;;6.10;99.90;;;;;;5094966;28;20211;-53
2022/11/14 03:10:54;;;;;;;8.60;4.72;;;6.10;99.90;;;;;;5095176;28;20165;-53
2022/11/14 03:13:20;;;;;;;4.40;3.85;;;6.10;99.90;;;;;;5094651;28;20174;-53
2022/11/14 03:15:46;;;;;;;5.45;3.88;;;6.10;99.90;;;;;;5094614;28;20166;-53
2022/11/14 03:18:11;;;;;;;5.63;4.05;;;6.10;99.90;;;;;;5094550;28;20638;-52
2022/11/14 03:20:37;;;;;;;6.40;4.82;;;6.10;99.90;;;;;;5094569;28;20172;-54
2022/11/14 03:23:03;;;;;;;5.90;4.55;;;6.00;99.90;;;;;;5094460;28;20550;-53
2022/11/14 03:25:29;;;;;;;6.65;4.00;;;6.00;99.90;;;;;;5094355;28;20169;-53
2022/11/14 03:27:54;;;;;;;6.75;4.80;;;6.00;99.90;;;;;;5094931;28;20193;-49
2022/11/14 03:30:20;;;;;;;5.00;4.50;;;6.00;99.90;;;;;;5094206;28;20636;-49
2022/11/14 03:32:46;;;;;;;6.40;4.88;;;5.90;99.90;;;;;;5094318;28;20727;-49
2022/11/14 03:35:11;;;;;;;7.95;4.97;;;5.90;99.90;;;;;;5094183;28;20640;-49
2022/11/14 03:37:37;;;;;;;7.50;5.13;;;5.90;99.90;;;;;;5094397;28;20181;-50
2022/11/14 03:40:03;;;;;;;7.88;5.18;;;5.90;99.90;;;;;;5094175;28;20222;-49
2022/11/14 03:42:33;;;;;;;8.50;6.30;;;5.90;99.90;;;;;;5094349;28;20165;-49
2022/11/14 03:44:58;;;;;;;9.77;5.47;;;5.90;99.90;;;;;;5093824;28;20277;-54
2022/11/14 03:47:24;;;;;;;8.48;5.70;;;5.80;99.90;;;;;;5094350;28;20256;-52
2022/11/14 03:49:49;;;;;;;7.80;6.07;;;5.80;99.90;;;;;;5093879;28;20255;-51
2022/11/14 03:52:15;;;;;;;9.27;5.80;;;5.80;99.90;;;;;;5094111;28;20173;-52
2022/11/14 03:54:40;;;;;;;8.85;5.80;;;5.80;99.90;;;;;;5093810;28;20166;-54
2022/11/14 03:57:06;;;;;;;9.00;6.00;;;5.80;99.90;;;;;;5093781;28;20228;-53
2022/11/14 03:59:32;;;;;;;7.82;5.88;;;5.80;99.90;;;;;;5093685;28;20213;-50
2022/11/14 04:01:57;;;;;;;8.25;6.18;;;5.80;99.90;;;;;;5093823;28;20179;-50
2022/11/14 04:04:23;;;;;;;8.50;6.20;;;5.80;99.90;;;;;;5093847;28;20798;-50
2022/11/14 04:06:48;;;;;;;10.00;6.07;;;5.80;99.90;;;;;;5093543;28;20165;-53
2022/11/14 04:09:14;;;;;;;7.90;6.10;;;5.80;99.90;;;;;;5092457;28;20197;-53
2022/11/14 04:11:39;;;;;;;12.45;6.60;;;5.80;99.90;;;;;;5093462;28;20165;-53
2022/11/14 04:14:05;;;;;;;9.30;6.57;;;5.70;99.90;;;;;;5093425;28;20184;-54
2022/11/14 04:16:30;;;;;;;9.93;6.70;;;5.70;99.90;;;;;;5093548;28;20162;-54
2022/11/14 04:18:56;;;;;;;12.50;7.40;;;5.70;99.90;;;;;;5093615;28;20197;-51
2022/11/14 04:21:22;;;;;;;10.70;6.68;;;5.70;99.90;;;;;;5093624;28;20161;-53
2022/11/14 04:23:47;;;;;;;8.57;6.07;;;5.70;99.90;;;;;;5075019;28;20219;-49
2022/11/14 04:26:13;;;;;;;12.18;7.03;;;5.70;99.90;;;;;;5093184;28;20241;-51
2022/11/14 04:28:38;;;;;;;8.55;6.25;;;5.80;99.90;;;;;;5093163;28;20169;-51
2022/11/14 04:31:04;;;;;;;10.13;6.25;;;5.70;99.90;;;;;;5093120;28;20172;-52
2022/11/14 04:33:30;;;;;;;9.02;6.30;;;5.70;99.90;;;;;;5093091;28;20195;-52
2022/11/14 04:35:55;;;;;;;11.23;6.72;;;5.70;99.90;;;;;;5093471;28;20169;-53
2022/11/14 04:38:21;;;;;;;10.07;6.88;;;5.60;99.90;;;;;;5093197;28;20171;-53
2022/11/14 04:40:52;;;;;;;11.55;7.03;;;5.60;99.90;;;;;;5092970;28;20240;-51
2022/11/14 04:43:19;;;;;;;7.78;6.13;;;5.70;99.90;;;;;;5092297;28;20224;-51
2022/11/14 04:45:45;;;;;;;9.55;6.43;;;5.60;99.90;;;;;;5092819;28;20162;-51
2022/11/14 04:48:11;;;;;;;10.05;6.72;;;5.60;99.90;;;;;;5092790;28;20172;-51
2022/11/14 04:50:37;;;;;;;10.45;6.50;;;5.60;99.90;;;;;;5092828;28;20244;-53
2022/11/14 04:53:02;;;;;;;16.13;7.47;;;5.60;99.90;;;;;;5092777;28;20188;-52
2022/11/14 04:55:28;;;;;;;13.13;7.65;;;5.60;99.90;;;;;;5092911;28;20621;-53
2022/11/14 04:57:55;;;;;;;9.68;6.47;;;5.60;99.90;;;;;;5092937;28;20161;-51
2022/11/14 05:00:21;;;;;;;10.20;6.35;;;5.60;99.90;;;;;;5092689;28;20299;-50
2022/11/14 05:02:47;;;;;;;11.43;7.70;;;5.50;99.90;;;;;;5092497;28;20249;-51
2022/11/14 05:05:12;;;;;;;8.98;6.30;;;5.50;99.90;;;;;;5092396;28;20598;-51
2022/11/14 05:07:38;;;;;;;8.95;6.38;;;5.50;99.90;;;;;;5092421;28;20161;-54
2022/11/14 05:10:04;;;;;;;9.02;6.43;;;5.50;99.90;;;;;;5092422;28;20173;-51
2022/11/14 05:12:30;;;;;;;7.80;6.03;;;5.50;99.90;;;;;;5092354;28;20199;-50
2022/11/14 05:14:55;;;;;;;8.10;5.75;;;5.50;99.90;;;;;;5092721;28;20197;-51
2022/11/14 05:17:21;;;;;;;9.27;6.00;;;5.40;99.90;;;;;;5092709;28;20270;-51
2022/11/14 05:19:47;;;;;;;8.40;6.03;;;5.40;99.90;;;;;;5092262;28;20218;-53
2022/11/14 05:22:12;;;;;;;11.32;6.50;;;5.40;99.90;;;;;;5092206;28;20215;-50
2022/11/14 05:24:38;;;;;;;11.65;6.55;;;5.50;99.90;;;;;;5092273;28;20215;-50
2022/11/14 05:27:03;;;;;;;14.38;6.38;;;5.40;99.90;;;;;;5092094;28;20618;-50
2022/11/14 05:29:29;;;;;;;13.25;6.20;;;5.40;99.90;;;;;;5092234;28;20633;-51
2022/11/14 05:31:55;;;;;;;12.00;7.35;;;5.40;99.90;;;;;;5092405;28;20735;-50
2022/11/14 05:34:20;;;;;;;9.43;6.32;;;5.40;99.90;;;;;;5091972;28;20176;-51
2022/11/14 05:36:46;;;;;;;9.98;6.25;;;5.40;99.90;;;;;;5091994;28;20173;-52
2022/11/14 05:39:11;;;;;;;14.45;7.47;;;5.40;99.90;;;;;;5091941;28;20165;-50
2022/11/14 05:41:37;;;;;;;10.65;6.80;;;5.30;99.90;;;;;;5092229;28;20192;-51
2022/11/14 05:44:03;;;;;;;11.52;7.30;;;5.40;99.90;;;;;;5091816;28;20668;-50
2022/11/14 05:46:29;;;;;;;12.77;7.60;;;5.30;99.90;;;;;;5091665;28;20157;-49
2022/11/14 05:48:54;;;;;;;11.80;7.00;;;5.30;99.90;;;;;;5092227;28;20582;-50
2022/11/14 05:51:20;;;;;;;19.20;9.73;;;5.30;99.90;;;;;;5073728;28;20576;-50
2022/11/14 05:53:45;;;;;;;15.40;7.07;;;5.20;99.90;;;;;;5092029;28;20231;-49
2022/11/14 05:56:12;;;;;;;14.65;8.38;;;5.20;99.90;;;;;;5095426;28;20204;-53
2022/11/14 05:58:38;;;;;;;13.55;8.30;;;5.20;99.90;;;;;;5095768;28;20165;-52
2022/11/14 06:01:06;;;;;;;13.10;7.60;;;5.30;99.90;;;;;;5096237;28;20624;-53
2022/11/14 06:03:40;;;;;;;19.42;8.10;;;5.20;99.90;;;;;;5095551;28;20750;-52
2022/11/14 06:06:08;;;;;;;12.18;7.45;;;5.30;99.90;;;;;;5095608;28;20169;-53
2022/11/14 06:08:34;;;;;;;13.85;7.95;;;5.20;99.90;;;;;;5095593;28;20165;-54
2022/11/14 06:11:07;;;;;;;17.65;8.65;;;5.20;99.90;;;;;;5095979;28;20195;-50
2022/11/14 06:13:33;;;;;;;11.20;7.20;;;5.20;99.90;;;;;;5095930;28;20166;-51
2022/11/14 06:16:01;;;;;;;19.27;10.80;;;5.20;99.90;;;;;;5095376;28;20166;-50
2022/11/14 06:18:27;;;;;;;14.48;6.65;;;5.10;99.90;;;;;;5095700;28;20165;-50
2022/11/14 06:20:53;;;;;;;7.68;6.03;;;5.10;99.90;;;;;;5095905;28;20169;-51
2022/11/14 06:23:18;;;;;;;12.18;7.55;;;5.10;99.90;;;;;;5095504;28;20676;-50
2022/11/14 06:25:44;;;;;;;10.77;7.20;;;5.10;99.90;;;;;;5095457;28;20591;-52
2022/11/14 06:28:09;;;;;;;18.15;6.78;;;5.10;99.90;;;;;;5095356;28;20180;-51
2022/11/14 06:30:35;;;;;;;12.77;7.88;;;5.10;99.90;;;;;;5095432;28;20187;-52
2022/11/14 06:33:00;;;;;;;10.98;6.50;;;5.00;99.90;;;;;;5095387;28;20252;-50
2022/11/14 06:35:26;;;;;;;8.85;6.22;;;5.00;99.90;;;;;;5095287;28;20168;-50
2022/11/14 06:37:52;;;;;;;12.18;7.85;;;5.10;99.90;;;;;;5095419;28;20244;-49
2022/11/14 06:40:18;;;;;;;12.73;7.38;;;5.00;99.90;;;;;;5095034;28;20599;-53
2022/11/14 06:42:43;;;;;;;14.80;6.85;;;5.00;99.90;;;;;;5094839;28;20184;-52
2022/11/14 06:45:09;;;;;;;14.05;7.97;;;5.00;99.90;;;;;;5094948;28;20211;-50
2022/11/14 06:47:35;;;;;;;9.70;6.55;;;5.00;99.90;;;;;;5094998;28;20170;-50
2022/11/14 06:50:00;;;;;;;10.77;7.25;;;5.00;99.90;;;;;;5095088;28;20168;-51
2022/11/14 06:52:26;;;;;;;14.63;7.80;;;5.00;99.90;;;;;;5095087;28;20170;-50
2022/11/14 06:54:51;;;;;;;12.20;7.43;;;5.00;99.90;;;;;;5095325;28;20165;-53
2022/11/14 06:57:17;;;;;;;13.73;8.15;;;5.10;99.90;;;;;;5094883;28;20195;-51
2022/11/14 06:59:43;;;;;;;13.68;8.95;;;5.10;99.90;;;;;;5094681;28;20296;-50
2022/11/14 07:02:11;;;;;;;20.63;10.45;;;5.00;99.90;;;;;;5094807;28;20629;-50
2022/11/14 07:04:37;;;;;;;20.35;10.15;;;5.10;99.90;;;;;;5094956;28;20320;-49
2022/11/14 07:07:03;;;;;;;16.92;10.68;;;5.10;99.90;;;;;;5094336;28;20245;-52
2022/11/14 07:09:28;;;;;;;16.48;10.63;;;5.10;99.90;;;;;;5094697;28;20654;-50
2022/11/14 07:11:54;;;;;;;21.48;11.20;;;5.10;99.90;;;;;;5094937;28;20175;-51
2022/11/14 07:14:19;;;;;;;20.45;11.73;;;5.20;99.90;;;;;;5094648;28;20165;-51
2022/11/14 07:16:45;;;;;;;22.13;12.52;;;5.20;99.90;;;;;;5094644;28;20248;-51
2022/11/14 07:19:11;;;;;;;19.00;12.63;;;5.20;99.90;;;;;;5094719;28;20203;-54
2022/11/14 07:21:37;;;;;;;18.83;11.70;;;5.30;99.90;;;;;;5094710;28;20169;-49
2022/11/14 07:24:03;;;;;;;23.90;14.32;;;5.20;99.90;;;;;;5094583;28;20749;-52
2022/11/14 07:26:28;;;;;;;26.83;14.23;;;5.20;99.90;;;;;;5094558;28;20177;-52
2022/11/14 07:28:54;;;;;;;28.92;14.32;;;5.30;99.90;;;;;;5094964;28;20212;-50
2022/11/14 07:31:20;;;;;;;24.83;14.82;;;5.30;99.90;;;;;;5094221;28;20193;-50
2022/11/14 07:33:46;;;;;;;27.60;13.88;;;5.40;99.90;;;;;;5094252;28;20686;-54
2022/11/14 07:36:13;;;;;;;20.27;12.70;;;5.50;99.90;;;;;;5094285;28;20173;-51
2022/11/14 07:38:39;;;;;;;21.58;12.90;;;5.50;99.90;;;;;;5094243;28;20173;-54
2022/11/14 07:41:07;;;;;;;22.90;13.75;;;5.60;99.90;;;;;;5094386;28;20248;-49
2022/11/14 07:43:33;;;;;;;18.38;12.70;;;5.60;99.90;;;;;;5094013;28;20201;-50
2022/11/14 07:46:04;;;;;;;23.65;14.00;;;5.70;99.90;;;;;;5094015;28;20181;-49
2022/11/14 07:48:30;;;;;;;22.25;13.23;;;5.70;99.90;;;;;;5093952;28;20240;-50
2022/11/14 07:51:00;;;;;;;22.55;13.93;;;5.80;99.90;;;;;;5094107;28;20177;-53
2022/11/14 07:53:26;;;;;;;21.13;13.77;;;5.70;99.90;;;;;;5094135;28;20173;-53
2022/11/14 07:55:52;;;;;;;23.65;13.70;;;5.80;99.90;;;;;;5094462;28;20631;-52
2022/11/14 07:58:17;;;;;;;37.28;16.15;;;5.90;99.90;;;;;;5093733;28;20197;-53
2022/11/14 08:00:43;;;;;;;39.85;18.55;;;5.90;99.90;;;;;;5093540;28;20208;-52
2022/11/14 08:03:09;;;;;;;26.80;14.00;;;6.00;99.90;;;;;;5093630;28;20201;-53
2022/11/14 08:05:35;;;;;;;19.42;13.52;;;6.00;99.90;;;;;;5093641;28;20204;-53
2022/11/14 08:08:00;;;;;;;21.25;13.30;;;5.90;99.90;;;;;;5093608;28;20599;-52
2022/11/14 08:10:26;;;;;;;24.83;15.10;;;6.00;99.90;;;;;;5093555;28;20577;-54
2022/11/14 08:12:59;;;;;;;22.40;14.10;;;6.00;99.90;;;;;;5093813;28;20180;-55
2022/11/14 08:15:24;;;;;;;25.35;14.35;;;6.10;99.90;;;;;;5093741;28;20178;-53
2022/11/14 08:17:50;;;;;;;24.73;13.80;;;7.10;99.90;;;;;;5092741;28;20157;-53
2022/11/14 08:20:15;;;;;;;21.42;14.48;;;6.20;99.90;;;;;;5093332;28;20173;-53
2022/11/14 08:22:41;;;;;;;26.08;15.50;;;6.20;99.90;;;;;;5093351;28;20157;-53
2022/11/14 08:25:07;;;;;;;23.08;13.27;;;6.30;99.90;;;;;;5093189;28;20226;-54
2022/11/14 08:27:33;;;;;;;30.17;16.00;;;6.30;99.90;;;;;;5093169;28;20210;-53
2022/11/14 08:29:58;;;;;;;27.65;14.77;;;6.30;99.90;;;;;;5093081;28;20214;-54
2022/11/14 08:32:24;;;;;;;27.85;15.52;;;6.40;99.90;;;;;;5093516;28;20166;-52
2022/11/14 08:34:49;;;;;;;24.70;14.27;;;6.40;99.90;;;;;;5092928;28;20536;-53
2022/11/14 08:37:15;;;;;;;23.77;14.85;;;6.50;99.90;;;;;;5093060;28;20193;-53
2022/11/14 08:39:40;;;;;;;24.55;14.23;;;6.50;99.90;;;;;;5092850;28;20588;-53
2022/11/14 08:42:06;;;;;;;23.33;13.07;;;6.50;99.90;;;;;;5092911;28;20295;-52
2022/11/14 08:44:31;;;;;;;31.60;15.52;;;6.50;99.90;;;;;;5092724;28;20205;-54
2022/11/14 08:46:59;;;;;;;28.02;16.80;;;6.60;99.90;;;;;;5092811;28;20172;-54
2022/11/14 08:49:25;;;;;;;27.08;14.15;;;6.60;99.90;;;;;;5092996;28;20723;-54
2022/11/14 08:51:51;;;;;;;23.40;14.38;;;6.70;99.90;;;;;;5093094;28;20235;-54
2022/11/14 08:54:17;;;;;;;24.60;14.80;;;6.70;99.90;;;;;;5092689;28;20175;-54
2022/11/14 08:56:43;;;;;;;28.60;15.85;;;6.70;99.90;;;;;;5092545;28;20632;-54
2022/11/14 08:59:08;;;;;;;31.00;15.43;;;6.70;99.90;;;;;;5092452;28;20204;-53
2022/11/14 09:01:34;;;;;;;23.77;15.23;;;6.80;99.90;;;;;;5092493;28;20264;-53
2022/11/14 09:04:00;;;;;;;29.05;15.45;;;6.80;99.90;;;;;;5092859;28;20263;-50
2022/11/14 09:06:27;;;;;;;24.88;14.07;;;6.80;99.90;;;;;;5092627;28;20221;-51
2022/11/14 09:08:52;;;;;;;25.63;15.93;;;6.90;99.90;;;;;;5093093;28;20165;-52
2022/11/14 09:11:18;;;;;;;26.55;15.45;;;6.90;99.90;;;;;;5092358;28;20161;-52
2022/11/14 09:13:43;;;;;;;23.70;14.63;;;6.90;99.90;;;;;;5092643;28;20180;-55
2022/11/14 09:16:09;;;;;;;25.75;15.73;;;6.90;99.90;;;;;;5092316;28;20165;-50
2022/11/14 09:18:35;;;;;;;29.25;15.48;;;7.00;99.90;;;;;;5092267;28;20226;-52
2022/11/14 09:21:02;;;;;;;29.67;16.02;;;6.90;99.90;;;;;;5092184;28;20307;-48
2022/11/14 09:23:27;;;;;;;27.48;15.63;;;6.90;99.90;;;;;;5092066;28;20201;-53
2022/11/14 09:25:53;;;;;;;29.48;15.77;;;7.00;99.90;;;;;;5092511;28;20173;-53
2022/11/14 09:28:19;;;;;;;25.83;14.43;;;7.00;99.90;;;;;;5092237;28;20170;-51
2022/11/14 09:30:44;;;;;;;27.85;14.93;;;7.00;99.90;;;;;;5091945;28;20172;-54
2022/11/14 09:33:10;;;;;;;27.58;13.85;;;6.90;99.90;;;;;;5092047;28;20165;-53
2022/11/14 09:35:36;;;;;;;27.65;14.30;;;6.90;99.90;;;;;;5092220;28;20625;-50
2022/11/14 09:38:05;;;;;;;25.60;13.73;;;7.00;99.90;;;;;;5092265;28;20188;-50
2022/11/14 09:40:52;;;;;;;27.52;14.48;;;6.90;99.90;;;;;;5091878;28;20165;-50
2022/11/14 09:43:59;;;;;;;24.40;14.00;;;7.00;99.90;;;;;;5091800;28;20205;-49
2022/11/14 09:46:30;;;;;;;25.50;13.85;;;7.00;99.90;;;;;;5042943;28;20307;-50
2022/11/14 09:48:56;;;;;;;25.70;14.13;;;7.10;99.90;;;;;;5091840;28;20185;-50
2022/11/14 09:51:31;;;;;;;29.00;13.63;;;7.10;99.90;;;;;;5091902;28;20157;-50
2022/11/14 09:54:26;;;;;;;25.08;12.93;;;7.10;99.90;;;;;;5091644;28;20623;-50
2022/11/14 09:56:53;;;;;;;29.45;14.98;;;7.10;99.90;;;;;;5092022;28;20540;-52
2022/11/14 09:59:18;;;;;;;23.48;13.38;;;7.20;99.90;;;;;;5091767;28;20350;-52
2022/11/14 10:01:44;;;;;;;22.75;13.05;;;7.30;99.90;;;;;;5092128;28;20680;-51
2022/11/14 10:04:37;;;;;;;25.45;14.43;;;7.30;99.90;;;;;;5091479;28;20201;-52
2022/11/14 10:07:26;;;;;;;21.85;13.05;;;7.30;99.90;;;;;;5091649;28;20165;-51
2022/11/14 10:10:06;;;;;;;20.83;13.20;;;7.50;99.90;;;;;;5092390;28;20223;-52
2022/11/14 10:13:00;;;;;;;23.38;16.65;;;7.50;99.90;;;;;;5091771;28;20180;-52
2022/11/14 10:15:25;;;;;;;20.55;12.65;;;7.60;99.90;;;;;;5091640;28;20647;-52
2022/11/14 10:18:17;;;;;;;23.95;12.35;;;7.50;99.90;;;;;;5091894;28;20253;-52
2022/11/14 10:20:56;;;;;;;19.50;12.07;;;7.60;99.90;;;;;;5090469;28;20208;-51
2022/11/14 10:23:44;;;;;;;20.77;12.85;;;7.60;99.90;;;;;;5090377;28;20747;-50
2022/11/14 10:26:30;;;;;;;18.08;11.80;;;7.70;99.90;;;;;;5089918;28;20224;-52
2022/11/14 10:29:22;;;;;;;18.77;11.35;;;7.80;99.90;;;;;;5090189;28;20172;-52
2022/11/14 10:32:13;;;;;;;17.65;10.05;;;7.90;99.90;;;;;;5090331;28;20652;-52
2022/11/14 10:34:53;;;;;;;19.38;10.88;;;7.90;99.90;;;;;;5089990;28;20193;-52
2022/11/14 10:37:36;;;;;;;18.80;10.90;;;7.90;99.90;;;;;;5091390;28;20622;-50
2022/11/14 10:40:29;;;;;;;16.13;10.00;;;8.10;99.90;;;;;;5091405;28;20173;-52
2022/11/14 10:43:02;;;;;;;16.05;9.77;;;8.20;99.90;;;;;;5084784;28;20645;-52
2022/11/14 10:45:39;;;;;;;17.60;10.10;;;8.20;99.90;;;;;;5095087;28;20199;-51
2022/11/14 10:48:15;;;;;;;14.50;9.13;;;8.30;99.90;;;;;;5095333;28;20179;-51
2022/11/14 10:50:52;;;;;;;14.52;8.60;;;8.30;99.90;;;;;;5095024;28;20172;-52
2022/11/14 10:53:26;;;;;;;14.70;9.32;;;8.30;99.90;;;;;;5094953;28;20617;-52
2022/11/14 10:55:54;;;;;;;12.10;7.88;;;8.40;99.90;;;;;;5095395;28;20164;-51
2022/11/14 10:58:20;;;;;;;14.45;8.32;;;8.40;99.90;;;;;;5095561;28;20530;-52
2022/11/14 11:00:45;;;;;;;14.98;9.50;;;8.30;99.90;;;;;;5094726;28;20288;-50
2022/11/14 11:03:11;;;;;;;12.90;8.30;;;8.30;99.90;;;;;;5094764;28;20196;-49
2022/11/14 11:05:55;;;;;;;12.40;8.93;;;8.30;99.90;;;;;;5094678;28;20572;-49
2022/11/14 11:11:29;;;;;;;15.68;9.40;;;8.40;99.90;;;;;;5094968;28;20176;-49
2022/11/14 11:13:58;;;;;;;14.38;8.50;;;8.50;99.90;;;;;;5094544;28;20254;-49
2022/11/14 11:16:26;;;;;;;15.18;9.15;;;8.50;99.90;;;;;;5095076;28;20205;-49
2022/11/14 11:18:52;;;;;;;15.13;9.98;;;8.60;99.90;;;;;;5094768;28;20192;-48
2022/11/14 11:21:20;;;;;;;15.75;9.75;;;8.60;99.90;;;;;;5094384;28;20617;-49
2022/11/14 11:23:56;;;;;;;17.40;10.60;;;8.60;99.90;;;;;;5094465;28;20201;-49
2022/11/14 11:26:27;;;;;;;13.98;10.18;;;8.60;99.90;;;;;;5094753;28;20596;-49
2022/11/14 11:29:10;;;;;;;19.02;10.43;;;8.60;99.90;;;;;;5094843;28;20260;-50
2022/11/14 11:31:50;;;;;;;18.23;11.20;;;8.60;99.90;;;;;;5094285;28;20193;-49
2022/11/14 11:34:23;;;;;;;18.45;10.95;;;8.70;99.90;;;;;;5094312;28;20164;-50
2022/11/14 11:37:04;;;;;;;19.02;11.43;;;8.60;99.90;;;;;;5093961;28;20539;-50
2022/11/14 11:39:34;;;;;;;18.25;11.10;;;8.70;99.90;;;;;;5094042;28;20218;-51
2022/11/14 11:42:07;;;;;;;18.90;11.57;;;8.70;99.90;;;;;;5093378;28;20169;-52
2022/11/14 11:44:44;;;;;;;20.17;11.60;;;8.80;99.90;;;;;;5093704;28;20215;-50
2022/11/14 11:47:17;;;;;;;19.33;11.07;;;8.80;99.90;;;;;;5094034;28;20157;-51
2022/11/14 11:49:50;;;;;;;20.13;12.65;;;8.80;99.90;;;;;;5093973;28;20556;-51
2022/11/14 11:52:52;;;;;;;19.00;12.18;;;8.70;99.90;;;;;;5092792;28;20173;-52
2022/11/14 11:55:26;;;;;;;17.80;11.43;;;8.60;99.90;;;;;;5094153;28;20189;-52
2022/11/14 11:58:08;;;;;;;18.92;12.02;;;8.70;99.90;;;;;;5094430;28;20169;-53
2022/11/14 12:00:34;;;;;;;25.38;12.60;;;8.70;99.90;;;;;;5093733;28;20223;-54
2022/11/14 12:03:00;;;;;;;17.52;11.27;;;8.80;99.90;;;;;;5093733;28;20165;-52
2022/11/14 12:06:08;;;;;;;17.65;11.23;;;8.90;99.90;;;;;;5093606;28;20161;-51
2022/11/14 12:08:47;;;;;;;17.92;11.35;;;8.90;99.90;;;;;;5093503;28;20172;-50
2022/11/14 12:11:20;;;;;;;20.30;11.85;;;8.90;99.90;;;;;;5093428;28;20161;-52
2022/11/14 12:13:54;;;;;;;24.63;13.55;;;9.10;99.90;;;;;;5093748;28;20572;-52
2022/11/14 12:16:47;;;;;;;20.45;12.15;;;9.00;99.90;;;;;;5094067;28;20165;-54
2022/11/14 12:19:42;;;;;;;19.80;12.68;;;9.10;99.90;;;;;;5093284;28;20248;-52
2022/11/14 12:22:25;;;;;;;21.52;12.52;;;9.10;99.90;;;;;;5079687;28;20220;-51
2022/11/14 12:25:24;;;;;;;20.30;12.73;;;9.20;99.90;;;;;;5093879;28;20216;-51
2022/11/14 12:28:16;;;;;;;20.95;13.48;;;9.30;99.90;;;;;;5053786;28;20180;-52
2022/11/14 12:30:47;;;;;;;22.67;12.85;;;9.20;99.90;;;;;;5093108;28;20248;-51
2022/11/14 12:33:18;;;;;;;24.83;14.50;;;9.30;99.90;;;;;;5093152;28;20169;-51
2022/11/14 12:35:59;;;;;;;27.95;14.98;;;9.20;99.90;;;;;;5092876;28;20162;-51
2022/11/14 12:38:28;;;;;;;24.65;14.80;;;9.20;99.90;;;;;;5092844;28;20601;-52
2022/11/14 12:40:58;;;;;;;99.55;38.88;;;9.10;99.90;;;;;;5093071;28;20161;-50
2022/11/14 12:43:32;;;;;;;77.80;32.25;;;9.10;99.90;;;;;;5093309;28;20189;-49
2022/11/14 12:46:00;;;;;;;26.92;15.23;;;9.00;99.90;;;;;;5092811;28;20169;-49
2022/11/14 12:48:25;;;;;;;24.65;15.57;;;9.00;99.90;;;;;;5093069;28;20170;-49
2022/11/14 12:51:02;;;;;;;21.42;13.82;;;8.90;99.90;;;;;;5093199;28;20215;-49
2022/11/14 12:53:36;;;;;;;22.15;13.60;;;8.90;99.90;;;;;;5092765;28;20268;-50
2022/11/14 12:56:17;;;;;;;21.65;14.45;;;8.90;99.90;;;;;;5092723;28;20157;-49
2022/11/14 12:58:52;;;;;;;29.75;17.42;;;8.90;99.90;;;;;;5092485;28;20223;-49